createdAt,value
2019-05-09T00:00:03.969Z,10.18
2019-05-09T00:02:34.069Z,7.17
2019-05-09T00:05:00.785Z,7.12
2019-05-09T00:07:27.612Z,7.65
2019-05-09T00:09:54.182Z,9.25
2019-05-09T00:12:23.252Z,6.72
2019-05-09T00:14:49.597Z,5.45
2019-05-09T00:17:16.050Z,8.83
2019-05-09T00:19:43.837Z,8.33
2019-05-09T00:22:10.989Z,8.68
2019-05-09T00:24:39.706Z,7.08
2019-05-09T00:27:06.603Z,6.42
2019-05-09T00:29:34.912Z,7.10
2019-05-09T00:32:08.944Z,7.65
2019-05-09T00:34:53.294Z,7.03
2019-05-09T00:37:23.787Z,7.25
2019-05-09T00:39:50.337Z,6.72
2019-05-09T00:42:18.205Z,6.25
2019-05-09T00:45:03.991Z,6.95
2019-05-09T00:47:30.199Z,7.40
2019-05-09T00:49:56.949Z,5.72
2019-05-09T00:52:23.832Z,7.65
2019-05-09T00:54:50.347Z,6.72
2019-05-09T00:57:34.815Z,8.60
2019-05-09T01:00:07.350Z,5.53
2019-05-09T01:02:34.090Z,7.85
2019-05-09T01:05:04.005Z,5.92
2019-05-09T01:07:33.500Z,7.42
2019-05-09T01:09:59.980Z,6.60
2019-05-09T01:12:26.430Z,6.00
2019-05-09T01:14:53.871Z,6.10
2019-05-09T01:17:23.933Z,6.15
2019-05-09T01:19:50.719Z,4.37
2019-05-09T01:22:17.391Z,3.98
2019-05-09T01:24:44.333Z,6.35
2019-05-09T01:27:11.008Z,5.28
2019-05-09T01:29:37.708Z,5.28
2019-05-09T01:32:23.511Z,4.65
2019-05-09T01:34:49.942Z,4.42
2019-05-09T01:37:16.434Z,6.00
2019-05-09T01:39:44.053Z,5.35
2019-05-09T01:42:11.040Z,5.00
2019-05-09T01:44:37.586Z,4.40
2019-05-09T01:47:04.357Z,5.53
2019-05-09T01:49:34.036Z,6.55
2019-05-09T01:51:59.398Z,5.00
2019-05-09T01:54:29.188Z,4.60
2019-05-09T01:56:55.905Z,7.37
2019-05-09T01:59:24.241Z,7.35
2019-05-09T02:01:53.969Z,3.75
2019-05-09T02:04:20.045Z,5.53
2019-05-09T02:06:48.587Z,7.67
2019-05-09T02:09:15.201Z,5.58
2019-05-09T02:11:43.340Z,7.12
2019-05-09T02:14:13.465Z,5.50
2019-05-09T02:16:48.135Z,6.87
2019-05-09T02:19:19.587Z,6.25
2019-05-09T02:24:14.078Z,3.65
2019-05-09T02:26:40.827Z,4.58
2019-05-09T02:29:09.363Z,4.65
2019-05-09T02:31:35.899Z,4.60
2019-05-09T02:34:04.973Z,5.45
2019-05-09T02:36:31.182Z,5.75
2019-05-09T02:38:59.060Z,5.67
2019-05-09T02:41:28.514Z,2.42
2019-05-09T02:43:54.103Z,4.55
2019-05-09T02:46:25.478Z,7.35
2019-05-09T02:48:52.106Z,4.50
2019-05-09T02:51:18.891Z,3.35
2019-05-09T02:53:48.383Z,4.72
2019-05-09T02:56:18.785Z,5.67
2019-05-09T02:58:52.218Z,5.13
2019-05-09T03:01:20.942Z,8.68
2019-05-09T03:03:48.227Z,5.53
2019-05-09T03:06:14.958Z,4.95
2019-05-09T03:08:41.687Z,4.30
2019-05-09T03:11:09.863Z,6.05
2019-05-09T03:13:39.318Z,4.47
2019-05-09T03:16:08.566Z,6.75
2019-05-09T03:18:34.949Z,5.03
2019-05-09T03:21:04.543Z,5.15
2019-05-09T03:23:31.281Z,4.05
2019-05-09T03:25:58.802Z,5.65
2019-05-09T03:28:30.462Z,3.95
2019-05-09T03:33:39.598Z,6.70
2019-05-09T03:36:03.899Z,6.20
2019-05-09T03:38:30.519Z,7.85
2019-05-09T03:40:58.038Z,5.33
2019-05-09T03:43:27.433Z,7.30
2019-05-09T03:45:58.615Z,3.22
2019-05-09T03:48:30.072Z,4.85
2019-05-09T03:50:57.754Z,8.43
2019-05-09T03:53:24.316Z,5.30
2019-05-09T03:55:52.649Z,6.12
2019-05-09T03:58:20.501Z,6.75
2019-05-09T04:00:47.905Z,4.75
2019-05-09T04:03:14.737Z,5.75
2019-05-09T04:05:55.555Z,4.87
2019-05-09T04:08:18.213Z,5.20
2019-05-09T04:10:47.006Z,4.97
2019-05-09T04:13:14.328Z,6.83
2019-05-09T04:15:40.887Z,3.33
2019-05-09T04:18:08.275Z,12.00
2019-05-09T04:20:35.065Z,6.35
2019-05-09T04:23:01.778Z,9.00
2019-05-09T04:25:30.206Z,9.08
2019-05-09T04:27:58.303Z,8.45
2019-05-09T04:30:27.244Z,5.90
2019-05-09T04:32:53.711Z,8.33
2019-05-09T04:35:20.225Z,7.67
2019-05-09T04:37:48.225Z,6.83
2019-05-09T04:40:14.792Z,8.05
2019-05-09T04:42:44.405Z,5.83
2019-05-09T04:45:17.252Z,10.18
2019-05-09T04:47:47.077Z,9.65
2019-05-09T04:50:15.315Z,8.35
2019-05-09T04:52:43.496Z,10.40
2019-05-09T04:55:11.079Z,8.83
2019-05-09T04:57:38.259Z,7.37
2019-05-09T05:00:07.959Z,8.30
2019-05-09T05:02:38.033Z,8.33
2019-05-09T05:05:07.795Z,5.60
2019-05-09T05:07:34.134Z,8.13
2019-05-09T05:10:00.660Z,8.20
2019-05-09T05:12:27.790Z,9.95
2019-05-09T05:14:54.734Z,8.00
2019-05-09T05:17:21.706Z,7.00
2019-05-09T05:19:49.134Z,7.67
2019-05-09T05:22:18.264Z,7.85
2019-05-09T05:24:48.725Z,8.53
2019-05-09T05:27:15.851Z,8.83
2019-05-09T05:29:42.459Z,8.08
2019-05-09T05:32:10.964Z,7.08
2019-05-09T05:34:42.053Z,11.57
2019-05-09T05:37:08.723Z,7.87
2019-05-09T05:39:37.350Z,6.67
2019-05-09T05:42:03.838Z,9.03
2019-05-09T05:44:31.093Z,14.90
2019-05-09T05:47:04.690Z,6.28
2019-05-09T05:49:31.367Z,7.75
2019-05-09T05:51:58.353Z,7.87
2019-05-09T05:54:27.730Z,15.48
2019-05-09T05:56:54.491Z,7.47
2019-05-09T05:59:21.254Z,11.20
2019-05-09T06:01:48.338Z,9.38
2019-05-09T06:04:15.082Z,21.42
2019-05-09T06:06:42.314Z,9.63
2019-05-09T06:09:09.513Z,8.93
2019-05-09T06:11:38.408Z,7.65
2019-05-09T06:14:11.989Z,9.68
2019-05-09T06:16:37.761Z,6.72
2019-05-09T06:19:05.333Z,8.43
2019-05-09T06:21:32.334Z,7.85
2019-05-09T06:23:59.105Z,10.23
2019-05-09T06:26:25.782Z,12.93
2019-05-09T06:28:52.594Z,8.05
2019-05-09T06:31:19.828Z,8.35
2019-05-09T06:33:57.813Z,13.28
2019-05-09T06:36:25.159Z,8.55
2019-05-09T06:38:52.074Z,9.00
2019-05-09T06:41:20.894Z,9.13
2019-05-09T06:43:49.831Z,9.58
2019-05-09T06:46:21.398Z,9.50
2019-05-09T06:48:48.342Z,12.90
2019-05-09T06:51:18.082Z,8.58
2019-05-09T06:53:43.500Z,7.15
2019-05-09T06:56:10.788Z,11.08
2019-05-09T06:58:39.377Z,7.87
2019-05-09T07:01:13.806Z,8.48
2019-05-09T07:03:42.709Z,10.28
2019-05-09T07:06:17.894Z,7.03
2019-05-09T07:08:49.344Z,7.30
2019-05-09T07:11:19.003Z,9.80
2019-05-09T07:13:47.211Z,10.13
2019-05-09T07:16:18.710Z,7.47
2019-05-09T07:18:45.897Z,7.17
2019-05-09T07:21:12.712Z,7.47
2019-05-09T07:23:39.220Z,10.90
2019-05-09T07:26:10.381Z,7.95
2019-05-09T07:28:37.707Z,8.65
2019-05-09T07:31:12.527Z,10.25
2019-05-09T07:33:47.942Z,7.55
2019-05-09T07:36:14.646Z,8.65
2019-05-09T07:38:41.366Z,11.30
2019-05-09T07:41:09.087Z,6.53
2019-05-09T07:43:38.407Z,10.95
2019-05-09T07:46:09.033Z,6.85
2019-05-09T07:48:38.166Z,7.10
2019-05-09T07:51:08.950Z,9.85
2019-05-09T07:53:37.919Z,7.92
2019-05-09T07:56:04.676Z,9.68
2019-05-09T07:58:31.690Z,7.20
2019-05-09T08:01:01.487Z,7.53
2019-05-09T08:03:27.714Z,9.23
2019-05-09T08:05:54.806Z,8.60
2019-05-09T08:08:22.170Z,9.03
2019-05-09T08:10:48.905Z,7.58
2019-05-09T08:13:18.170Z,7.62
2019-05-09T08:15:45.121Z,7.30
2019-05-09T08:18:12.103Z,5.87
2019-05-09T08:20:41.409Z,5.78
2019-05-09T08:23:08.829Z,6.15
2019-05-09T08:25:38.210Z,8.90
2019-05-09T08:28:05.039Z,9.73
2019-05-09T08:30:36.321Z,4.83
2019-05-09T08:33:03.532Z,8.13
2019-05-09T08:35:30.428Z,8.73
2019-05-09T08:37:58.377Z,6.85
2019-05-09T08:40:28.322Z,9.20
2019-05-09T08:42:54.554Z,7.80
2019-05-09T08:45:27.540Z,8.60
2019-05-09T08:47:50.587Z,9.38
2019-05-09T08:50:31.847Z,6.97
2019-05-09T08:52:58.883Z,9.00
2019-05-09T08:55:27.792Z,9.18
2019-05-09T08:57:54.831Z,8.33
2019-05-09T09:00:21.564Z,6.58
2019-05-09T09:02:48.626Z,6.95
2019-05-09T09:05:15.145Z,7.05
2019-05-09T09:07:42.239Z,7.53
2019-05-09T09:10:09.996Z,4.85
2019-05-09T09:12:38.418Z,6.72
2019-05-09T09:15:07.765Z,7.65
2019-05-09T09:17:38.316Z,4.93
2019-05-09T09:20:08.630Z,5.80
2019-05-09T09:22:37.595Z,4.35
2019-05-09T09:25:07.462Z,6.85
2019-05-09T09:27:34.057Z,4.62
2019-05-09T09:30:16.465Z,5.72
2019-05-09T09:32:29.613Z,5.75
2019-05-09T09:34:58.540Z,6.95
2019-05-09T09:37:24.271Z,7.03
2019-05-09T09:39:50.717Z,4.33
2019-05-09T09:42:19.815Z,3.50
2019-05-09T09:44:47.893Z,4.47
2019-05-09T09:47:19.736Z,3.75
2019-05-09T09:49:42.243Z,2.60
2019-05-09T09:52:10.645Z,3.85
2019-05-09T09:54:38.538Z,5.35
2019-05-09T09:57:09.173Z,5.53
2019-05-09T09:59:40.233Z,6.12
2019-05-09T10:02:10.348Z,4.95
2019-05-09T10:04:37.548Z,4.80
2019-05-09T10:07:04.410Z,5.22
2019-05-09T10:09:31.335Z,5.05
2019-05-09T10:12:00.577Z,5.17
2019-05-09T10:14:31.247Z,5.40
2019-05-09T10:17:00.176Z,6.53
2019-05-09T10:19:48.676Z,6.28
2019-05-09T10:22:24.189Z,8.83
2019-05-09T10:24:48.681Z,4.33
2019-05-09T10:27:18.472Z,4.05
2019-05-09T10:29:44.828Z,8.70
2019-05-09T10:32:18.444Z,3.50
2019-05-09T10:34:45.146Z,5.20
2019-05-09T10:37:11.794Z,4.83
2019-05-09T10:39:38.531Z,5.75
2019-05-09T10:42:07.915Z,4.95
2019-05-09T10:44:53.525Z,7.05
2019-05-09T10:47:23.312Z,7.37
2019-05-09T10:49:49.953Z,3.35
2019-05-09T10:52:18.263Z,5.75
2019-05-09T10:54:45.491Z,5.75
2019-05-09T10:57:12.695Z,6.25
2019-05-09T10:59:39.287Z,6.80
2019-05-09T11:02:09.238Z,3.83
2019-05-09T11:04:34.637Z,10.05
2019-05-09T11:07:01.496Z,7.28
2019-05-09T11:09:29.082Z,5.47
2019-05-09T11:12:00.339Z,5.80
2019-05-09T11:14:36.097Z,5.37
2019-05-09T11:17:06.808Z,3.85
2019-05-09T11:19:21.973Z,3.30
2019-05-09T11:21:48.396Z,3.52
2019-05-09T11:24:14.858Z,3.75
2019-05-09T11:26:41.663Z,3.65
2019-05-09T11:29:08.291Z,6.05
2019-05-09T11:31:35.080Z,4.17
2019-05-09T11:34:01.778Z,4.90
2019-05-09T11:36:28.777Z,4.50
2019-05-09T11:38:59.734Z,2.65
2019-05-09T11:41:23.932Z,3.37
2019-05-09T11:43:50.533Z,4.40
2019-05-09T11:46:18.043Z,4.45
2019-05-09T11:48:45.050Z,3.12
2019-05-09T11:51:12.158Z,6.00
2019-05-09T11:53:40.156Z,3.25
2019-05-09T11:56:08.257Z,3.55
2019-05-09T11:58:37.809Z,4.92
2019-05-09T12:01:04.462Z,3.65
2019-05-09T12:03:31.493Z,5.15
2019-05-09T12:05:58.569Z,4.17
2019-05-09T12:08:25.700Z,5.80
2019-05-09T12:10:53.001Z,5.70
2019-05-09T12:13:21.087Z,7.17
2019-05-09T12:15:48.961Z,5.72
2019-05-09T12:18:15.982Z,6.87
2019-05-09T12:20:42.697Z,3.77
2019-05-09T12:23:14.086Z,4.28
2019-05-09T12:25:40.961Z,8.93
2019-05-09T12:28:07.970Z,4.90
2019-05-09T12:30:34.949Z,8.05
2019-05-09T12:33:02.136Z,5.15
2019-05-09T12:35:29.047Z,4.62
2019-05-09T12:37:56.148Z,5.22
2019-05-09T12:40:23.635Z,9.23
2019-05-09T12:42:53.293Z,5.97
2019-05-09T12:45:20.878Z,5.60
2019-05-09T12:47:47.589Z,4.60
2019-05-09T12:50:14.916Z,5.45
2019-05-09T12:52:41.904Z,8.40
2019-05-09T12:55:12.703Z,8.95
2019-05-09T12:57:38.668Z,7.55
2019-05-09T13:00:07.645Z,6.92
2019-05-09T13:02:34.422Z,13.20
2019-05-09T13:05:02.978Z,10.20
2019-05-09T13:07:45.062Z,11.60
2019-05-09T13:10:19.340Z,9.95
2019-05-09T13:12:48.500Z,8.38
2019-05-09T13:15:18.356Z,11.80
2019-05-09T13:17:48.030Z,10.35
2019-05-09T13:20:17.918Z,9.13
2019-05-09T13:22:44.622Z,11.38
2019-05-09T13:25:12.015Z,10.70
2019-05-09T13:27:39.066Z,9.10
2019-05-09T13:30:08.352Z,9.95
2019-05-09T13:32:41.019Z,11.63
2019-05-09T13:35:07.768Z,17.37
2019-05-09T13:37:34.320Z,12.37
2019-05-09T13:40:01.342Z,13.13
2019-05-09T13:42:28.539Z,12.82
2019-05-09T13:44:55.964Z,12.90
2019-05-09T13:47:22.570Z,13.62
2019-05-09T13:49:50.096Z,12.00
2019-05-09T13:52:17.965Z,15.55
2019-05-09T13:54:44.591Z,14.73
2019-05-09T13:57:11.400Z,15.15
2019-05-09T13:59:37.864Z,19.32
2019-05-09T14:02:05.545Z,15.10
2019-05-09T14:04:32.211Z,12.65
2019-05-09T14:06:58.944Z,16.25
2019-05-09T14:09:28.849Z,17.00
2019-05-09T14:11:58.592Z,14.45
2019-05-09T14:14:22.561Z,9.45
2019-05-09T14:16:49.188Z,15.58
2019-05-09T14:19:34.545Z,14.80
2019-05-09T14:21:44.435Z,15.50
2019-05-09T14:24:15.550Z,18.45
2019-05-09T14:26:39.994Z,17.65
2019-05-09T14:29:06.717Z,14.87
2019-05-09T14:31:38.853Z,13.35
2019-05-09T14:34:05.387Z,15.53
2019-05-09T14:36:32.236Z,12.68
2019-05-09T14:39:31.509Z,12.63
2019-05-09T14:41:58.699Z,12.43
2019-05-09T14:44:27.749Z,9.18
2019-05-09T14:46:59.818Z,11.22
2019-05-09T14:49:39.632Z,10.93
2019-05-09T14:51:57.991Z,15.83
2019-05-09T14:54:24.370Z,16.65
2019-05-09T14:56:51.308Z,14.90
2019-05-09T14:59:21.695Z,14.23
2019-05-09T15:01:49.683Z,15.60
2019-05-09T15:04:18.898Z,15.63
2019-05-09T15:06:52.974Z,15.38
2019-05-09T15:09:21.076Z,13.95
2019-05-09T15:12:00.895Z,13.65
2019-05-09T15:14:25.044Z,19.70
2019-05-09T15:16:53.067Z,14.58
2019-05-09T15:19:19.635Z,12.30
2019-05-09T15:21:48.719Z,13.48
2019-05-09T15:24:18.910Z,12.60
2019-05-09T15:26:44.757Z,12.03
2019-05-09T15:29:11.591Z,10.82
2019-05-09T15:31:44.964Z,8.50
2019-05-09T15:34:11.511Z,10.65
2019-05-09T15:36:38.181Z,7.60
2019-05-09T15:39:08.020Z,7.33
2019-05-09T15:41:34.798Z,10.13
2019-05-09T15:44:08.242Z,5.40
2019-05-09T15:46:38.410Z,5.05
2019-05-09T15:49:07.611Z,4.77
2019-05-09T15:51:38.584Z,10.18
2019-05-09T15:54:08.379Z,7.00
2019-05-09T15:56:40.109Z,3.67
2019-05-09T15:59:09.651Z,2.65
2019-05-09T16:01:38.689Z,2.70
2019-05-09T16:04:05.502Z,2.72
2019-05-09T16:06:35.390Z,5.15
2019-05-09T16:09:02.700Z,3.92
2019-05-09T16:11:31.010Z,4.30
2019-05-09T16:14:03.260Z,5.45
2019-05-09T16:16:32.034Z,8.75
2019-05-09T16:18:58.601Z,9.35
2019-05-09T16:21:31.282Z,14.47
2019-05-09T16:26:38.313Z,12.82
2019-05-09T16:29:08.297Z,13.13
2019-05-09T16:31:34.298Z,15.20
2019-05-09T16:34:01.362Z,12.23
2019-05-09T16:36:28.438Z,15.65
2019-05-09T16:38:58.411Z,8.63
2019-05-09T16:41:27.860Z,4.50
2019-05-09T16:43:54.184Z,5.20
2019-05-09T16:46:21.288Z,6.87
2019-05-09T16:48:48.884Z,7.65
2019-05-09T16:51:18.662Z,5.50
2019-05-09T16:53:49.778Z,5.50
2019-05-09T16:56:18.075Z,6.08
2019-05-09T16:58:45.261Z,4.20
2019-05-09T17:01:12.059Z,4.42
2019-05-09T17:03:38.941Z,7.10
2019-05-09T17:06:07.680Z,4.35
2019-05-09T17:08:34.652Z,6.25
2019-05-09T17:11:01.515Z,6.10
2019-05-09T17:13:31.340Z,4.72
2019-05-09T17:15:58.348Z,4.75
2019-05-09T17:18:28.309Z,4.10
2019-05-09T17:21:14.602Z,4.55
2019-05-09T17:23:32.429Z,6.55
2019-05-09T17:28:31.805Z,5.62
2019-05-09T17:30:59.105Z,5.37
2019-05-09T17:33:28.707Z,5.12
2019-05-09T17:35:57.810Z,4.50
2019-05-09T17:38:27.919Z,4.78
2019-05-09T17:40:54.653Z,8.58
2019-05-09T17:43:21.615Z,4.55
2019-05-09T17:45:48.768Z,5.05
2019-05-09T17:48:18.203Z,5.90
2019-05-09T17:50:57.917Z,6.37
2019-05-09T17:53:25.075Z,7.23
2019-05-09T17:55:54.214Z,8.35
2019-05-09T17:58:29.271Z,8.05
2019-05-09T18:00:52.338Z,9.80
2019-05-09T18:03:21.743Z,9.78
2019-05-09T18:05:50.450Z,7.83
2019-05-09T18:08:18.745Z,9.33
2019-05-09T18:10:48.481Z,10.82
2019-05-09T18:13:15.269Z,8.55
2019-05-09T18:15:41.896Z,10.68
2019-05-09T18:18:22.566Z,11.08
2019-05-09T18:21:04.683Z,11.35
2019-05-09T18:23:31.405Z,11.30
2019-05-09T18:25:58.767Z,12.33
2019-05-09T18:28:25.665Z,9.35
2019-05-09T18:30:58.550Z,14.63
2019-05-09T18:33:47.599Z,11.55
2019-05-09T18:36:15.031Z,11.50
2019-05-09T18:38:41.954Z,15.13
2019-05-09T18:41:10.267Z,11.28
2019-05-09T18:43:41.895Z,12.45
2019-05-09T18:46:08.830Z,11.57
2019-05-09T18:48:37.694Z,11.15
2019-05-09T18:51:05.279Z,12.18
2019-05-09T18:53:34.209Z,10.75
2019-05-09T18:56:01.701Z,10.45
2019-05-09T18:58:28.345Z,14.70
2019-05-09T19:00:54.973Z,8.68
2019-05-09T19:03:26.173Z,13.18
2019-05-09T19:05:52.628Z,12.13
2019-05-09T19:08:19.599Z,14.98
2019-05-09T19:10:46.295Z,10.25
2019-05-09T19:13:15.162Z,11.35
2019-05-09T19:15:49.620Z,11.90
2019-05-09T19:18:31.520Z,9.68
2019-05-09T19:21:08.700Z,10.55
2019-05-09T19:23:35.543Z,14.28
2019-05-09T19:26:05.581Z,14.23
2019-05-09T19:28:37.851Z,12.28
2019-05-09T19:33:44.451Z,11.85
2019-05-09T19:36:15.134Z,11.00
2019-05-09T19:38:42.048Z,14.53
2019-05-09T19:41:21.802Z,8.65
2019-05-09T19:43:48.699Z,12.53
2019-05-09T19:46:17.273Z,13.45
2019-05-09T19:48:43.844Z,8.60
2019-05-09T19:51:10.310Z,13.03
2019-05-09T19:53:37.250Z,10.58
2019-05-09T19:56:03.907Z,12.45
2019-05-09T19:58:30.244Z,9.65
2019-05-09T20:00:56.675Z,10.60
2019-05-09T20:03:29.206Z,14.87
2019-05-09T20:05:55.713Z,12.05
2019-05-09T20:08:22.688Z,12.10
2019-05-09T20:11:00.109Z,11.68
2019-05-09T20:13:29.626Z,9.98
2019-05-09T20:15:56.224Z,6.20
2019-05-09T20:18:23.003Z,9.53
2019-05-09T20:20:50.948Z,9.40
2019-05-09T20:23:17.640Z,11.20
2019-05-09T20:25:44.228Z,9.05
2019-05-09T20:28:10.897Z,11.63
2019-05-09T20:30:37.507Z,10.03
2019-05-09T20:33:04.038Z,9.38
2019-05-09T20:35:30.471Z,10.10
2019-05-09T20:37:57.236Z,13.30
2019-05-09T20:40:23.982Z,11.70
2019-05-09T20:42:57.007Z,11.48
2019-05-09T20:45:33.304Z,7.62
2019-05-09T20:48:02.352Z,11.78
2019-05-09T20:50:28.871Z,11.83
2019-05-09T20:53:08.416Z,11.60
2019-05-09T20:55:24.699Z,11.30
2019-05-09T20:57:52.207Z,9.48
2019-05-09T21:00:19.348Z,7.87
2019-05-09T21:02:45.942Z,9.03
2019-05-09T21:05:12.712Z,10.38
2019-05-09T21:07:39.483Z,16.10
2019-05-09T21:10:06.452Z,10.60
2019-05-09T21:12:36.126Z,11.05
2019-05-09T21:15:05.610Z,10.38
2019-05-09T21:17:37.922Z,9.15
2019-05-09T21:20:07.078Z,16.93
2019-05-09T21:22:33.585Z,12.43
2019-05-09T21:25:00.107Z,13.08
2019-05-09T21:27:26.510Z,13.00
2019-05-09T21:29:53.101Z,15.03
2019-05-09T21:32:20.144Z,14.38
2019-05-09T21:34:46.698Z,9.08
2019-05-09T21:37:14.001Z,12.95
2019-05-09T21:39:41.200Z,13.62
2019-05-09T21:42:08.145Z,21.97
2019-05-09T21:44:35.728Z,13.30
2019-05-09T21:47:02.331Z,12.05
2019-05-09T21:49:30.780Z,14.43
2019-05-09T21:51:57.210Z,13.40
2019-05-09T21:54:24.063Z,11.68
2019-05-09T21:56:52.813Z,13.38
2019-05-09T21:59:19.519Z,13.03
2019-05-09T22:01:46.561Z,13.55
2019-05-09T22:04:21.093Z,15.63
2019-05-09T22:06:47.570Z,16.85
2019-05-09T22:09:14.075Z,16.95
2019-05-09T22:11:40.653Z,18.23
2019-05-09T22:14:07.545Z,8.83
2019-05-09T22:16:34.491Z,16.62
2019-05-09T22:19:04.684Z,16.50
2019-05-09T22:21:31.532Z,11.65
2019-05-09T22:24:00.159Z,14.53
2019-05-09T22:26:27.220Z,13.78
2019-05-09T22:28:56.791Z,17.95
2019-05-09T22:31:23.862Z,13.68
2019-05-09T22:33:50.651Z,13.55
2019-05-09T22:36:23.194Z,15.10
2019-05-09T22:38:49.750Z,18.00
2019-05-09T22:41:16.688Z,12.98
2019-05-09T22:43:59.313Z,12.40
2019-05-09T22:46:35.788Z,13.62
2019-05-09T22:49:35.271Z,15.20
2019-05-09T22:52:09.790Z,17.07
2019-05-09T22:54:43.409Z,17.60
2019-05-09T22:57:11.040Z,16.75
2019-05-09T23:02:28.337Z,15.60
2019-05-09T23:04:54.895Z,15.75
2019-05-09T23:10:01.898Z,21.90
2019-05-09T23:12:28.922Z,15.05
2019-05-09T23:14:55.672Z,21.50
2019-05-09T23:17:25.203Z,17.32
2019-05-09T23:19:51.983Z,18.10
2019-05-09T23:22:29.755Z,23.38
2019-05-09T23:24:58.644Z,25.40
2019-05-09T23:27:28.223Z,22.00
2019-05-09T23:29:56.853Z,26.90
2019-05-09T23:32:28.811Z,20.43
2019-05-09T23:34:55.455Z,24.98
2019-05-09T23:37:22.201Z,27.05
2019-05-09T23:39:50.987Z,28.77
2019-05-09T23:42:33.041Z,28.73
2019-05-09T23:44:59.859Z,34.50
2019-05-09T23:47:26.494Z,24.25
2019-05-09T23:49:57.178Z,27.37
2019-05-09T23:52:24.033Z,27.42
2019-05-09T23:55:09.179Z,28.90
2019-05-09T23:57:55.063Z,30.30
